sensor_id;sensor_type;location;lat;lon;timestamp;temperature;humidity
23231;DHT22;11784;49.818;8.632;2023-03-11T00:00:17;6.60;86.60
23231;DHT22;11784;49.818;8.632;2023-03-11T00:02:45;6.50;86.80
23231;DHT22;11784;49.818;8.632;2023-03-11T00:05:17;6.60;86.00
23231;DHT22;11784;49.818;8.632;2023-03-11T00:07:43;6.50;85.30
23231;DHT22;11784;49.818;8.632;2023-03-11T00:10:14;6.50;85.90
23231;DHT22;11784;49.818;8.632;2023-03-11T00:12:40;6.60;85.10
23231;DHT22;11784;49.818;8.632;2023-03-11T00:15:06;6.60;83.90
23231;DHT22;11784;49.818;8.632;2023-03-11T00:17:31;6.50;83.80
23231;DHT22;11784;49.818;8.632;2023-03-11T00:19:57;6.60;82.10
23231;DHT22;11784;49.818;8.632;2023-03-11T00:22:22;6.50;80.20
23231;DHT22;11784;49.818;8.632;2023-03-11T00:24:48;6.40;78.50
23231;DHT22;11784;49.818;8.632;2023-03-11T00:27:13;6.30;79.20
23231;DHT22;11784;49.818;8.632;2023-03-11T00:29:41;6.30;77.20
23231;DHT22;11784;49.818;8.632;2023-03-11T00:32:06;6.20;75.90
23231;DHT22;11784;49.818;8.632;2023-03-11T00:34:32;6.20;75.30
23231;DHT22;11784;49.818;8.632;2023-03-11T00:36:57;6.20;75.40
23231;DHT22;11784;49.818;8.632;2023-03-11T00:39:23;6.20;74.10
23231;DHT22;11784;49.818;8.632;2023-03-11T00:41:48;6.20;73.30
23231;DHT22;11784;49.818;8.632;2023-03-11T00:44:15;6.10;73.50
23231;DHT22;11784;49.818;8.632;2023-03-11T00:46:40;6.10;73.70
23231;DHT22;11784;49.818;8.632;2023-03-11T00:49:06;6.00;72.40
23231;DHT22;11784;49.818;8.632;2023-03-11T00:51:31;6.00;71.60
23231;DHT22;11784;49.818;8.632;2023-03-11T00:53:57;6.00;72.50
23231;DHT22;11784;49.818;8.632;2023-03-11T00:56:24;6.00;74.50
23231;DHT22;11784;49.818;8.632;2023-03-11T00:58:52;6.00;74.80
23231;DHT22;11784;49.818;8.632;2023-03-11T01:01:19;6.10;74.30
23231;DHT22;11784;49.818;8.632;2023-03-11T01:03:45;6.20;71.30
23231;DHT22;11784;49.818;8.632;2023-03-11T01:06:11;6.20;71.50
23231;DHT22;11784;49.818;8.632;2023-03-11T01:08:37;6.10;70.80
23231;DHT22;11784;49.818;8.632;2023-03-11T01:11:04;6.20;70.10
23231;DHT22;11784;49.818;8.632;2023-03-11T01:13:31;6.10;71.40
23231;DHT22;11784;49.818;8.632;2023-03-11T01:15:56;6.10;70.40
23231;DHT22;11784;49.818;8.632;2023-03-11T01:18:22;6.10;70.60
23231;DHT22;11784;49.818;8.632;2023-03-11T01:20:48;6.20;70.80
23231;DHT22;11784;49.818;8.632;2023-03-11T01:23:15;6.20;70.60
23231;DHT22;11784;49.818;8.632;2023-03-11T01:25:41;6.30;71.50
23231;DHT22;11784;49.818;8.632;2023-03-11T01:28:07;6.30;71.30
23231;DHT22;11784;49.818;8.632;2023-03-11T01:30:34;6.30;70.10
23231;DHT22;11784;49.818;8.632;2023-03-11T01:33:01;6.30;70.70
23231;DHT22;11784;49.818;8.632;2023-03-11T01:35:28;6.30;70.80
23231;DHT22;11784;49.818;8.632;2023-03-11T01:37:53;6.20;70.00
23231;DHT22;11784;49.818;8.632;2023-03-11T01:40:29;6.20;70.30
23231;DHT22;11784;49.818;8.632;2023-03-11T01:42:55;6.30;70.90
23231;DHT22;11784;49.818;8.632;2023-03-11T01:48:15;6.30;71.90
23231;DHT22;11784;49.818;8.632;2023-03-11T01:50:45;6.30;70.70
23231;DHT22;11784;49.818;8.632;2023-03-11T01:53:12;6.30;71.30
23231;DHT22;11784;49.818;8.632;2023-03-11T01:55:39;6.20;70.80
23231;DHT22;11784;49.818;8.632;2023-03-11T01:58:07;6.30;72.10
23231;DHT22;11784;49.818;8.632;2023-03-11T02:00:34;6.30;71.90
23231;DHT22;11784;49.818;8.632;2023-03-11T02:03:06;6.30;72.10
23231;DHT22;11784;49.818;8.632;2023-03-11T02:05:33;6.40;72.70
23231;DHT22;11784;49.818;8.632;2023-03-11T02:07:59;6.50;72.10
23231;DHT22;11784;49.818;8.632;2023-03-11T02:10:24;6.40;71.40
23231;DHT22;11784;49.818;8.632;2023-03-11T02:12:51;6.50;72.00
23231;DHT22;11784;49.818;8.632;2023-03-11T02:15:17;6.50;72.00
23231;DHT22;11784;49.818;8.632;2023-03-11T02:17:42;6.40;71.60
23231;DHT22;11784;49.818;8.632;2023-03-11T02:22:47;6.50;71.60
23231;DHT22;11784;49.818;8.632;2023-03-11T02:27:47;6.50;72.70
23231;DHT22;11784;49.818;8.632;2023-03-11T02:30:15;6.60;71.70
23231;DHT22;11784;49.818;8.632;2023-03-11T02:32:42;6.60;72.40
23231;DHT22;11784;49.818;8.632;2023-03-11T02:35:08;6.50;72.50
23231;DHT22;11784;49.818;8.632;2023-03-11T02:37:34;6.50;72.40
23231;DHT22;11784;49.818;8.632;2023-03-11T02:42:47;6.50;72.60
23231;DHT22;11784;49.818;8.632;2023-03-11T02:45:15;6.50;72.00
23231;DHT22;11784;49.818;8.632;2023-03-11T02:47:42;6.60;72.50
23231;DHT22;11784;49.818;8.632;2023-03-11T02:50:10;6.60;72.70
23231;DHT22;11784;49.818;8.632;2023-03-11T02:52:36;6.60;72.10
23231;DHT22;11784;49.818;8.632;2023-03-11T02:55:03;6.60;72.20
23231;DHT22;11784;49.818;8.632;2023-03-11T02:57:28;6.60;72.50
23231;DHT22;11784;49.818;8.632;2023-03-11T02:59:54;6.60;72.10
23231;DHT22;11784;49.818;8.632;2023-03-11T03:02:19;6.60;72.80
23231;DHT22;11784;49.818;8.632;2023-03-11T03:04:45;6.50;71.80
23231;DHT22;11784;49.818;8.632;2023-03-11T03:07:10;6.60;71.30
23231;DHT22;11784;49.818;8.632;2023-03-11T03:09:36;6.50;72.00
23231;DHT22;11784;49.818;8.632;2023-03-11T03:12:03;6.60;72.10
23231;DHT22;11784;49.818;8.632;2023-03-11T03:14:29;6.70;71.90
23231;DHT22;11784;49.818;8.632;2023-03-11T03:16:55;6.70;71.40
23231;DHT22;11784;49.818;8.632;2023-03-11T03:19:20;6.80;72.20
23231;DHT22;11784;49.818;8.632;2023-03-11T03:21:46;6.80;71.70
23231;DHT22;11784;49.818;8.632;2023-03-11T03:24:11;6.80;71.00
23231;DHT22;11784;49.818;8.632;2023-03-11T03:26:37;6.70;71.20
23231;DHT22;11784;49.818;8.632;2023-03-11T03:29:03;6.80;71.90
23231;DHT22;11784;49.818;8.632;2023-03-11T03:31:29;6.80;71.90
23231;DHT22;11784;49.818;8.632;2023-03-11T03:33:55;6.90;71.30
23231;DHT22;11784;49.818;8.632;2023-03-11T03:36:20;6.90;70.70
23231;DHT22;11784;49.818;8.632;2023-03-11T03:38:46;6.90;70.60
23231;DHT22;11784;49.818;8.632;2023-03-11T03:41:14;6.90;71.70
23231;DHT22;11784;49.818;8.632;2023-03-11T03:43:40;7.00;70.70
23231;DHT22;11784;49.818;8.632;2023-03-11T03:46:06;7.00;71.10
23231;DHT22;11784;49.818;8.632;2023-03-11T03:48:31;7.00;70.80
23231;DHT22;11784;49.818;8.632;2023-03-11T03:51:04;7.00;71.00
23231;DHT22;11784;49.818;8.632;2023-03-11T03:53:33;7.00;70.20
23231;DHT22;11784;49.818;8.632;2023-03-11T03:56:02;6.90;70.70
23231;DHT22;11784;49.818;8.632;2023-03-11T03:58:28;6.80;71.20
23231;DHT22;11784;49.818;8.632;2023-03-11T04:00:57;6.70;71.30
23231;DHT22;11784;49.818;8.632;2023-03-11T04:03:24;6.60;71.60
23231;DHT22;11784;49.818;8.632;2023-03-11T04:05:50;6.60;71.70
23231;DHT22;11784;49.818;8.632;2023-03-11T04:08:16;6.60;72.90
23231;DHT22;11784;49.818;8.632;2023-03-11T04:10:42;6.60;73.60
23231;DHT22;11784;49.818;8.632;2023-03-11T04:13:07;6.60;72.90
23231;DHT22;11784;49.818;8.632;2023-03-11T04:15:33;6.70;71.50
23231;DHT22;11784;49.818;8.632;2023-03-11T04:17:58;6.70;71.70
23231;DHT22;11784;49.818;8.632;2023-03-11T04:20:24;6.70;72.20
23231;DHT22;11784;49.818;8.632;2023-03-11T04:22:49;6.70;72.70
23231;DHT22;11784;49.818;8.632;2023-03-11T04:25:15;6.80;72.20
23231;DHT22;11784;49.818;8.632;2023-03-11T04:27:40;6.80;72.20
23231;DHT22;11784;49.818;8.632;2023-03-11T04:30:10;6.80;71.70
23231;DHT22;11784;49.818;8.632;2023-03-11T04:32:36;6.70;70.80
23231;DHT22;11784;49.818;8.632;2023-03-11T04:35:12;6.70;71.30
23231;DHT22;11784;49.818;8.632;2023-03-11T04:37:37;6.70;71.50
23231;DHT22;11784;49.818;8.632;2023-03-11T04:40:03;6.70;71.70
23231;DHT22;11784;49.818;8.632;2023-03-11T04:42:30;6.70;72.20
23231;DHT22;11784;49.818;8.632;2023-03-11T04:44:56;6.70;72.20
23231;DHT22;11784;49.818;8.632;2023-03-11T04:47:21;6.70;72.20
23231;DHT22;11784;49.818;8.632;2023-03-11T04:49:46;6.80;72.10
23231;DHT22;11784;49.818;8.632;2023-03-11T04:52:12;6.80;72.20
23231;DHT22;11784;49.818;8.632;2023-03-11T04:54:39;6.80;72.80
23231;DHT22;11784;49.818;8.632;2023-03-11T04:57:05;6.80;72.50
23231;DHT22;11784;49.818;8.632;2023-03-11T04:59:30;6.80;72.50
23231;DHT22;11784;49.818;8.632;2023-03-11T05:01:56;6.90;73.10
23231;DHT22;11784;49.818;8.632;2023-03-11T05:04:21;6.90;72.40
23231;DHT22;11784;49.818;8.632;2023-03-11T05:06:47;6.90;72.30
23231;DHT22;11784;49.818;8.632;2023-03-11T05:09:15;6.90;72.30
23231;DHT22;11784;49.818;8.632;2023-03-11T05:11:41;6.90;72.30
23231;DHT22;11784;49.818;8.632;2023-03-11T05:14:06;6.90;72.80
23231;DHT22;11784;49.818;8.632;2023-03-11T05:16:32;7.00;72.40
23231;DHT22;11784;49.818;8.632;2023-03-11T05:18:57;7.00;71.90
23231;DHT22;11784;49.818;8.632;2023-03-11T05:21:23;7.00;72.20
23231;DHT22;11784;49.818;8.632;2023-03-11T05:23:48;7.00;71.90
23231;DHT22;11784;49.818;8.632;2023-03-11T05:26:14;7.00;72.60
23231;DHT22;11784;49.818;8.632;2023-03-11T05:28:40;7.00;72.40
23231;DHT22;11784;49.818;8.632;2023-03-11T05:31:09;7.10;72.40
23231;DHT22;11784;49.818;8.632;2023-03-11T05:33:35;7.00;72.50
23231;DHT22;11784;49.818;8.632;2023-03-11T05:36:08;7.00;72.40
23231;DHT22;11784;49.818;8.632;2023-03-11T05:38:35;7.10;72.80
23231;DHT22;11784;49.818;8.632;2023-03-11T05:41:01;7.00;71.60
23231;DHT22;11784;49.818;8.632;2023-03-11T05:43:26;6.90;72.00
23231;DHT22;11784;49.818;8.632;2023-03-11T05:45:52;6.90;72.60
23231;DHT22;11784;49.818;8.632;2023-03-11T05:48:17;7.00;72.40
23231;DHT22;11784;49.818;8.632;2023-03-11T05:50:43;7.00;72.30
23231;DHT22;11784;49.818;8.632;2023-03-11T05:53:08;6.90;72.30
23231;DHT22;11784;49.818;8.632;2023-03-11T05:55:34;6.80;71.40
23231;DHT22;11784;49.818;8.632;2023-03-11T05:57:59;6.90;72.50
23231;DHT22;11784;49.818;8.632;2023-03-11T06:00:25;6.90;72.70
23231;DHT22;11784;49.818;8.632;2023-03-11T06:02:53;6.90;72.50
23231;DHT22;11784;49.818;8.632;2023-03-11T06:05:19;6.80;72.70
23231;DHT22;11784;49.818;8.632;2023-03-11T06:07:44;6.90;73.00
23231;DHT22;11784;49.818;8.632;2023-03-11T06:10:10;6.90;72.80
23231;DHT22;11784;49.818;8.632;2023-03-11T06:12:36;6.80;73.50
23231;DHT22;11784;49.818;8.632;2023-03-11T06:15:04;6.80;73.90
23231;DHT22;11784;49.818;8.632;2023-03-11T06:17:30;6.80;73.80
23231;DHT22;11784;49.818;8.632;2023-03-11T06:19:57;6.80;74.20
23231;DHT22;11784;49.818;8.632;2023-03-11T06:22:22;6.80;74.10
23231;DHT22;11784;49.818;8.632;2023-03-11T06:24:48;6.90;74.00
23231;DHT22;11784;49.818;8.632;2023-03-11T06:27:13;6.80;74.10
23231;DHT22;11784;49.818;8.632;2023-03-11T06:29:39;6.90;74.10
23231;DHT22;11784;49.818;8.632;2023-03-11T06:32:05;6.90;73.80
23231;DHT22;11784;49.818;8.632;2023-03-11T06:34:30;6.90;73.90
23231;DHT22;11784;49.818;8.632;2023-03-11T06:36:56;6.90;74.50
23231;DHT22;11784;49.818;8.632;2023-03-11T06:39:23;6.90;74.00
23231;DHT22;11784;49.818;8.632;2023-03-11T06:41:49;6.90;73.90
23231;DHT22;11784;49.818;8.632;2023-03-11T06:44:14;6.90;73.80
23231;DHT22;11784;49.818;8.632;2023-03-11T06:46:40;6.90;74.50
23231;DHT22;11784;49.818;8.632;2023-03-11T06:49:06;6.90;74.30
23231;DHT22;11784;49.818;8.632;2023-03-11T06:51:31;6.90;74.50
23231;DHT22;11784;49.818;8.632;2023-03-11T06:53:57;7.00;74.20
23231;DHT22;11784;49.818;8.632;2023-03-11T06:56:23;7.00;73.50
23231;DHT22;11784;49.818;8.632;2023-03-11T06:58:49;7.00;72.90
23231;DHT22;11784;49.818;8.632;2023-03-11T07:01:25;7.00;72.60
23231;DHT22;11784;49.818;8.632;2023-03-11T07:03:53;7.00;73.30
23231;DHT22;11784;49.818;8.632;2023-03-11T07:06:21;7.00;72.70
23231;DHT22;11784;49.818;8.632;2023-03-11T07:08:48;7.00;73.50
23231;DHT22;11784;49.818;8.632;2023-03-11T07:11:25;7.00;73.70
23231;DHT22;11784;49.818;8.632;2023-03-11T07:13:52;7.00;73.20
23231;DHT22;11784;49.818;8.632;2023-03-11T07:16:24;7.00;72.70
23231;DHT22;11784;49.818;8.632;2023-03-11T07:18:50;7.10;72.50
23231;DHT22;11784;49.818;8.632;2023-03-11T07:21:18;7.10;72.40
23231;DHT22;11784;49.818;8.632;2023-03-11T07:23:44;7.10;72.70
23231;DHT22;11784;49.818;8.632;2023-03-11T07:26:12;7.20;72.60
23231;DHT22;11784;49.818;8.632;2023-03-11T07:28:39;7.20;71.90
23231;DHT22;11784;49.818;8.632;2023-03-11T07:31:10;7.20;72.40
23231;DHT22;11784;49.818;8.632;2023-03-11T07:33:35;7.20;71.90
23231;DHT22;11784;49.818;8.632;2023-03-11T07:36:11;7.20;71.40
23231;DHT22;11784;49.818;8.632;2023-03-11T07:38:37;7.20;71.10
23231;DHT22;11784;49.818;8.632;2023-03-11T07:41:03;7.20;72.30
23231;DHT22;11784;49.818;8.632;2023-03-11T07:43:29;7.20;72.00
23231;DHT22;11784;49.818;8.632;2023-03-11T07:46:06;7.30;72.20
23231;DHT22;11784;49.818;8.632;2023-03-11T07:48:32;7.30;71.90
23231;DHT22;11784;49.818;8.632;2023-03-11T07:51:12;7.40;72.10
23231;DHT22;11784;49.818;8.632;2023-03-11T07:53:38;7.40;71.10
23231;DHT22;11784;49.818;8.632;2023-03-11T07:56:06;7.40;69.70
23231;DHT22;11784;49.818;8.632;2023-03-11T07:58:32;7.50;68.30
23231;DHT22;11784;49.818;8.632;2023-03-11T08:01:06;7.40;68.30
23231;DHT22;11784;49.818;8.632;2023-03-11T08:03:33;7.50;68.40
23231;DHT22;11784;49.818;8.632;2023-03-11T08:05:59;7.50;68.90
23231;DHT22;11784;49.818;8.632;2023-03-11T08:08:24;7.50;68.30
23231;DHT22;11784;49.818;8.632;2023-03-11T08:10:50;7.50;67.90
23231;DHT22;11784;49.818;8.632;2023-03-11T08:13:16;7.60;67.70
23231;DHT22;11784;49.818;8.632;2023-03-11T08:15:41;7.60;68.20
23231;DHT22;11784;49.818;8.632;2023-03-11T08:18:07;7.60;68.10
23231;DHT22;11784;49.818;8.632;2023-03-11T08:20:33;7.50;67.00
23231;DHT22;11784;49.818;8.632;2023-03-11T08:22:58;7.50;66.90
23231;DHT22;11784;49.818;8.632;2023-03-11T08:25:24;7.50;65.50
23231;DHT22;11784;49.818;8.632;2023-03-11T08:27:49;7.50;65.50
23231;DHT22;11784;49.818;8.632;2023-03-11T08:30:15;7.50;65.40
23231;DHT22;11784;49.818;8.632;2023-03-11T08:32:40;7.50;65.70
23231;DHT22;11784;49.818;8.632;2023-03-11T08:35:06;7.50;65.10
23231;DHT22;11784;49.818;8.632;2023-03-11T08:37:31;7.50;65.70
23231;DHT22;11784;49.818;8.632;2023-03-11T08:39:57;7.50;65.50
23231;DHT22;11784;49.818;8.632;2023-03-11T08:42:22;7.50;63.80
23231;DHT22;11784;49.818;8.632;2023-03-11T08:44:48;7.60;64.20
23231;DHT22;11784;49.818;8.632;2023-03-11T08:47:14;7.60;63.90
23231;DHT22;11784;49.818;8.632;2023-03-11T08:49:39;7.70;64.00
23231;DHT22;11784;49.818;8.632;2023-03-11T08:52:05;7.80;65.00
23231;DHT22;11784;49.818;8.632;2023-03-11T08:54:31;7.90;64.40
23231;DHT22;11784;49.818;8.632;2023-03-11T08:56:57;7.90;61.40
23231;DHT22;11784;49.818;8.632;2023-03-11T08:59:27;8.00;58.70
23231;DHT22;11784;49.818;8.632;2023-03-11T09:01:53;7.80;56.80
23231;DHT22;11784;49.818;8.632;2023-03-11T09:04:19;7.80;57.00
23231;DHT22;11784;49.818;8.632;2023-03-11T09:06:44;7.70;56.30
23231;DHT22;11784;49.818;8.632;2023-03-11T09:09:11;7.60;56.10
23231;DHT22;11784;49.818;8.632;2023-03-11T09:11:37;7.60;57.70
23231;DHT22;11784;49.818;8.632;2023-03-11T09:14:03;7.70;59.20
23231;DHT22;11784;49.818;8.632;2023-03-11T09:16:29;7.80;58.90
23231;DHT22;11784;49.818;8.632;2023-03-11T09:18:55;7.90;58.40
23231;DHT22;11784;49.818;8.632;2023-03-11T09:21:22;8.00;56.00
23231;DHT22;11784;49.818;8.632;2023-03-11T09:23:47;8.00;56.00
23231;DHT22;11784;49.818;8.632;2023-03-11T09:26:13;8.10;55.30
23231;DHT22;11784;49.818;8.632;2023-03-11T09:28:46;8.10;56.70
23231;DHT22;11784;49.818;8.632;2023-03-11T09:31:14;8.10;55.60
23231;DHT22;11784;49.818;8.632;2023-03-11T09:33:41;8.10;54.90
23231;DHT22;11784;49.818;8.632;2023-03-11T09:36:07;8.30;56.40
23231;DHT22;11784;49.818;8.632;2023-03-11T09:38:35;8.50;55.60
23231;DHT22;11784;49.818;8.632;2023-03-11T09:46:54;8.80;56.10
23231;DHT22;11784;49.818;8.632;2023-03-11T09:49:24;8.90;53.50
23231;DHT22;11784;49.818;8.632;2023-03-11T09:52:11;8.80;53.90
23231;DHT22;11784;49.818;8.632;2023-03-11T09:54:40;8.70;52.60
23231;DHT22;11784;49.818;8.632;2023-03-11T09:57:10;8.40;52.50
23231;DHT22;11784;49.818;8.632;2023-03-11T09:59:37;8.30;53.80
23231;DHT22;11784;49.818;8.632;2023-03-11T10:02:04;8.30;54.20
23231;DHT22;11784;49.818;8.632;2023-03-11T10:05:01;8.30;53.50
23231;DHT22;11784;49.818;8.632;2023-03-11T10:07:40;8.40;53.90
23231;DHT22;11784;49.818;8.632;2023-03-11T10:10:12;8.30;54.50
23231;DHT22;11784;49.818;8.632;2023-03-11T10:12:51;8.20;51.90
23231;DHT22;11784;49.818;8.632;2023-03-11T10:15:55;8.40;53.40
23231;DHT22;11784;49.818;8.632;2023-03-11T10:18:48;8.60;54.90
23231;DHT22;11784;49.818;8.632;2023-03-11T10:24:08;8.90;52.70
23231;DHT22;11784;49.818;8.632;2023-03-11T10:26:44;9.00;52.00
23231;DHT22;11784;49.818;8.632;2023-03-11T10:34:48;9.10;52.30
23231;DHT22;11784;49.818;8.632;2023-03-11T10:37:37;9.30;51.90
23231;DHT22;11784;49.818;8.632;2023-03-11T10:40:25;9.40;52.00
23231;DHT22;11784;49.818;8.632;2023-03-11T10:42:53;9.60;52.00
23231;DHT22;11784;49.818;8.632;2023-03-11T10:45:20;9.70;51.50
23231;DHT22;11784;49.818;8.632;2023-03-11T10:47:48;9.80;51.90
23231;DHT22;11784;49.818;8.632;2023-03-11T10:50:16;10.00;52.30
23231;DHT22;11784;49.818;8.632;2023-03-11T10:53:05;10.10;51.00
23231;DHT22;11784;49.818;8.632;2023-03-11T10:55:31;10.20;50.80
23231;DHT22;11784;49.818;8.632;2023-03-11T10:58:05;10.30;50.50
23231;DHT22;11784;49.818;8.632;2023-03-11T11:00:31;10.20;49.20
23231;DHT22;11784;49.818;8.632;2023-03-11T11:02:57;10.20;50.40
23231;DHT22;11784;49.818;8.632;2023-03-11T11:08:15;10.30;51.70
23231;DHT22;11784;49.818;8.632;2023-03-11T11:10:57;10.30;51.20
23231;DHT22;11784;49.818;8.632;2023-03-11T11:13:25;10.40;50.20
23231;DHT22;11784;49.818;8.632;2023-03-11T11:15:55;10.40;51.00
23231;DHT22;11784;49.818;8.632;2023-03-11T11:21:13;10.50;50.70
23231;DHT22;11784;49.818;8.632;2023-03-11T11:23:47;10.50;49.10
23231;DHT22;11784;49.818;8.632;2023-03-11T11:26:23;10.50;50.70
23231;DHT22;11784;49.818;8.632;2023-03-11T11:31:34;10.40;47.80
23231;DHT22;11784;49.818;8.632;2023-03-11T11:34:00;10.30;47.20
23231;DHT22;11784;49.818;8.632;2023-03-11T11:36:30;10.20;48.50
23231;DHT22;11784;49.818;8.632;2023-03-11T11:38:58;10.20;48.70
23231;DHT22;11784;49.818;8.632;2023-03-11T11:41:25;10.20;47.50
23231;DHT22;11784;49.818;8.632;2023-03-11T11:44:00;10.30;46.40
23231;DHT22;11784;49.818;8.632;2023-03-11T11:46:41;10.30;45.70
23231;DHT22;11784;49.818;8.632;2023-03-11T11:49:28;10.30;46.70
23231;DHT22;11784;49.818;8.632;2023-03-11T11:57:13;10.30;46.60
23231;DHT22;11784;49.818;8.632;2023-03-11T11:59:39;10.30;46.80
23231;DHT22;11784;49.818;8.632;2023-03-11T12:05:03;10.30;47.00
23231;DHT22;11784;49.818;8.632;2023-03-11T12:10:22;10.40;46.90
23231;DHT22;11784;49.818;8.632;2023-03-11T12:13:08;10.40;47.60
23231;DHT22;11784;49.818;8.632;2023-03-11T12:18:04;10.30;48.70
23231;DHT22;11784;49.818;8.632;2023-03-11T12:20:43;10.20;46.60
23231;DHT22;11784;49.818;8.632;2023-03-11T12:23:18;10.30;46.70
23231;DHT22;11784;49.818;8.632;2023-03-11T12:28:44;10.40;46.50
23231;DHT22;11784;49.818;8.632;2023-03-11T12:31:11;10.50;46.40
23231;DHT22;11784;49.818;8.632;2023-03-11T12:33:57;10.60;46.40
23231;DHT22;11784;49.818;8.632;2023-03-11T12:36:42;10.70;46.10
23231;DHT22;11784;49.818;8.632;2023-03-11T12:39:23;10.70;44.10
23231;DHT22;11784;49.818;8.632;2023-03-11T12:44:35;10.70;44.00
23231;DHT22;11784;49.818;8.632;2023-03-11T12:49:31;10.70;44.40
23231;DHT22;11784;49.818;8.632;2023-03-11T12:54:40;10.80;44.10
23231;DHT22;11784;49.818;8.632;2023-03-11T13:05:27;11.10;43.70
23231;DHT22;11784;49.818;8.632;2023-03-11T13:08:14;11.20;44.00
23231;DHT22;11784;49.818;8.632;2023-03-11T13:10:41;11.40;44.70
23231;DHT22;11784;49.818;8.632;2023-03-11T13:13:30;11.40;42.30
23231;DHT22;11784;49.818;8.632;2023-03-11T13:15:57;11.30;41.90
23231;DHT22;11784;49.818;8.632;2023-03-11T13:18:44;11.20;43.20
23231;DHT22;11784;49.818;8.632;2023-03-11T13:23:52;10.80;44.70
23231;DHT22;11784;49.818;8.632;2023-03-11T13:26:43;10.60;44.90
23231;DHT22;11784;49.818;8.632;2023-03-11T13:35:09;10.20;45.60
23231;DHT22;11784;49.818;8.632;2023-03-11T13:38:11;10.20;46.50
23231;DHT22;11784;49.818;8.632;2023-03-11T13:40:43;9.90;45.80
23231;DHT22;11784;49.818;8.632;2023-03-11T13:46:10;9.90;46.00
23231;DHT22;11784;49.818;8.632;2023-03-11T13:48:43;9.70;46.10
23231;DHT22;11784;49.818;8.632;2023-03-11T13:51:26;9.40;47.80
23231;DHT22;11784;49.818;8.632;2023-03-11T13:54:03;9.30;47.80
23231;DHT22;11784;49.818;8.632;2023-03-11T13:56:32;9.30;48.10
23231;DHT22;11784;49.818;8.632;2023-03-11T13:59:16;9.40;47.50
23231;DHT22;11784;49.818;8.632;2023-03-11T14:02:12;9.50;47.40
23231;DHT22;11784;49.818;8.632;2023-03-11T14:04:46;9.60;48.70
23231;DHT22;11784;49.818;8.632;2023-03-11T14:07:32;9.70;49.00
23231;DHT22;11784;49.818;8.632;2023-03-11T14:10:27;9.80;47.30
23231;DHT22;11784;49.818;8.632;2023-03-11T14:13:15;9.80;46.60
23231;DHT22;11784;49.818;8.632;2023-03-11T14:15:46;9.90;48.30
23231;DHT22;11784;49.818;8.632;2023-03-11T14:20:50;9.90;46.60
23231;DHT22;11784;49.818;8.632;2023-03-11T14:23:18;9.90;46.10
23231;DHT22;11784;49.818;8.632;2023-03-11T14:25:44;9.80;46.00
23231;DHT22;11784;49.818;8.632;2023-03-11T14:28:19;9.70;47.30
23231;DHT22;11784;49.818;8.632;2023-03-11T14:30:56;9.70;47.50
23231;DHT22;11784;49.818;8.632;2023-03-11T14:33:22;9.60;46.60
23231;DHT22;11784;49.818;8.632;2023-03-11T14:35:53;9.60;46.70
23231;DHT22;11784;49.818;8.632;2023-03-11T14:38:24;9.60;46.70
23231;DHT22;11784;49.818;8.632;2023-03-11T14:40:53;9.60;46.70
23231;DHT22;11784;49.818;8.632;2023-03-11T14:43:20;9.60;46.70
23231;DHT22;11784;49.818;8.632;2023-03-11T14:45:48;9.60;46.50
23231;DHT22;11784;49.818;8.632;2023-03-11T14:48:38;9.70;46.70
23231;DHT22;11784;49.818;8.632;2023-03-11T14:51:10;9.70;46.50
23231;DHT22;11784;49.818;8.632;2023-03-11T14:53:43;9.70;46.90
23231;DHT22;11784;49.818;8.632;2023-03-11T14:56:18;9.70;46.90
23231;DHT22;11784;49.818;8.632;2023-03-11T14:58:56;9.70;46.50
23231;DHT22;11784;49.818;8.632;2023-03-11T15:01:27;9.90;47.00
23231;DHT22;11784;49.818;8.632;2023-03-11T15:04:11;10.20;45.80
23231;DHT22;11784;49.818;8.632;2023-03-11T15:06:41;10.40;45.60
23231;DHT22;11784;49.818;8.632;2023-03-11T15:09:17;10.70;46.10
23231;DHT22;11784;49.818;8.632;2023-03-11T15:12:03;11.20;45.50
23231;DHT22;11784;49.818;8.632;2023-03-11T15:14:31;11.60;43.80
23231;DHT22;11784;49.818;8.632;2023-03-11T15:19:40;12.20;42.40
23231;DHT22;11784;49.818;8.632;2023-03-11T15:22:26;12.30;41.70
23231;DHT22;11784;49.818;8.632;2023-03-11T15:24:58;12.40;41.80
23231;DHT22;11784;49.818;8.632;2023-03-11T15:27:33;12.40;42.10
23231;DHT22;11784;49.818;8.632;2023-03-11T15:30:00;12.50;42.20
23231;DHT22;11784;49.818;8.632;2023-03-11T15:32:43;12.60;43.10
23231;DHT22;11784;49.818;8.632;2023-03-11T15:37:38;12.80;41.70
23231;DHT22;11784;49.818;8.632;2023-03-11T15:40:24;12.80;41.60
23231;DHT22;11784;49.818;8.632;2023-03-11T15:45:42;12.70;43.00
23231;DHT22;11784;49.818;8.632;2023-03-11T15:48:12;12.70;43.30
23231;DHT22;11784;49.818;8.632;2023-03-11T15:50:49;12.70;41.90
23231;DHT22;11784;49.818;8.632;2023-03-11T15:53:15;13.00;40.90
23231;DHT22;11784;49.818;8.632;2023-03-11T15:55:40;13.60;39.10
23231;DHT22;11784;49.818;8.632;2023-03-11T15:58:08;14.50;38.90
23231;DHT22;11784;49.818;8.632;2023-03-11T16:00:35;15.50;36.70
23231;DHT22;11784;49.818;8.632;2023-03-11T16:03:00;16.10;34.40
23231;DHT22;11784;49.818;8.632;2023-03-11T16:05:27;16.30;33.60
23231;DHT22;11784;49.818;8.632;2023-03-11T16:07:52;16.20;33.30
23231;DHT22;11784;49.818;8.632;2023-03-11T16:10:20;15.90;33.70
23231;DHT22;11784;49.818;8.632;2023-03-11T16:12:46;15.40;33.80
23231;DHT22;11784;49.818;8.632;2023-03-11T16:15:19;14.90;34.50
23231;DHT22;11784;49.818;8.632;2023-03-11T16:17:50;14.30;35.60
23231;DHT22;11784;49.818;8.632;2023-03-11T16:20:19;13.90;36.90
23231;DHT22;11784;49.818;8.632;2023-03-11T16:22:47;13.40;36.80
23231;DHT22;11784;49.818;8.632;2023-03-11T16:25:20;13.00;37.90
23231;DHT22;11784;49.818;8.632;2023-03-11T16:27:47;12.70;38.50
23231;DHT22;11784;49.818;8.632;2023-03-11T16:30:13;12.30;39.30
23231;DHT22;11784;49.818;8.632;2023-03-11T16:32:41;12.10;39.80
23231;DHT22;11784;49.818;8.632;2023-03-11T16:35:07;11.80;40.90
23231;DHT22;11784;49.818;8.632;2023-03-11T16:37:33;11.50;41.00
23231;DHT22;11784;49.818;8.632;2023-03-11T16:39:58;11.40;42.10
23231;DHT22;11784;49.818;8.632;2023-03-11T16:42:24;11.20;42.40
23231;DHT22;11784;49.818;8.632;2023-03-11T16:44:50;11.10;42.80
23231;DHT22;11784;49.818;8.632;2023-03-11T16:47:15;11.00;43.10
23231;DHT22;11784;49.818;8.632;2023-03-11T16:49:41;10.90;42.70
23231;DHT22;11784;49.818;8.632;2023-03-11T16:52:06;10.70;43.00
23231;DHT22;11784;49.818;8.632;2023-03-11T16:54:32;10.50;42.80
23231;DHT22;11784;49.818;8.632;2023-03-11T16:56:59;10.40;44.50
23231;DHT22;11784;49.818;8.632;2023-03-11T16:59:26;10.30;45.20
23231;DHT22;11784;49.818;8.632;2023-03-11T17:01:51;10.30;44.30
23231;DHT22;11784;49.818;8.632;2023-03-11T17:04:19;10.20;43.90
23231;DHT22;11784;49.818;8.632;2023-03-11T17:06:45;10.20;44.20
23231;DHT22;11784;49.818;8.632;2023-03-11T17:09:11;10.10;44.80
23231;DHT22;11784;49.818;8.632;2023-03-11T17:11:36;9.90;45.60
23231;DHT22;11784;49.818;8.632;2023-03-11T17:14:10;9.80;47.10
23231;DHT22;11784;49.818;8.632;2023-03-11T17:16:35;9.70;48.30
23231;DHT22;11784;49.818;8.632;2023-03-11T17:19:01;9.60;47.30
23231;DHT22;11784;49.818;8.632;2023-03-11T17:21:28;9.60;46.10